createdAt,value
2019-03-24T00:01:26.585Z,8.23
2019-03-24T00:03:57.201Z,8.05
2019-03-24T00:06:27.783Z,8.08
2019-03-24T00:08:58.387Z,8.27
2019-03-24T00:11:28.965Z,8.18
2019-03-24T00:13:59.525Z,7.95
2019-03-24T00:16:30.127Z,7.93
2019-03-24T00:19:00.615Z,8.04
2019-03-24T00:21:31.164Z,8.13
2019-03-24T00:24:01.900Z,8.26
2019-03-24T00:26:32.433Z,8.07
2019-03-24T00:29:03.043Z,7.82
2019-03-24T00:31:33.583Z,8.02
2019-03-24T00:34:04.139Z,8.02
2019-03-24T00:36:34.680Z,7.82
2019-03-24T00:39:07.152Z,7.92
2019-03-24T00:41:37.793Z,7.69
2019-03-24T00:44:08.332Z,7.91
2019-03-24T00:46:38.874Z,7.74
2019-03-24T00:49:09.454Z,7.52
2019-03-24T00:51:40.005Z,7.88
2019-03-24T00:54:10.591Z,7.80
2019-03-24T00:56:41.102Z,7.75
2019-03-24T00:59:11.669Z,7.69
2019-03-24T01:01:42.217Z,7.73
2019-03-24T01:04:12.804Z,7.98
2019-03-24T01:06:43.397Z,8.14
2019-03-24T01:09:13.994Z,8.06
2019-03-24T01:11:44.529Z,7.93
2019-03-24T01:14:15.119Z,7.87
2019-03-24T01:16:45.655Z,7.27
2019-03-24T01:19:16.232Z,7.86
2019-03-24T01:21:46.786Z,7.88
2019-03-24T01:24:17.367Z,7.72
2019-03-24T01:26:47.925Z,7.81
2019-03-24T01:29:18.499Z,7.77
2019-03-24T01:31:49.027Z,7.85
2019-03-24T01:34:19.609Z,7.35
2019-03-24T01:36:50.171Z,7.47
2019-03-24T01:39:20.750Z,7.68
2019-03-24T01:41:51.325Z,7.77
2019-03-24T01:44:21.912Z,7.66
2019-03-24T01:46:52.432Z,7.69
2019-03-24T01:49:22.993Z,7.92
2019-03-24T01:51:53.543Z,7.68
2019-03-24T01:54:24.624Z,7.41
2019-03-24T01:56:55.146Z,7.59
2019-03-24T01:59:25.999Z,7.69
2019-03-24T02:01:56.641Z,7.23
2019-03-24T02:04:27.221Z,7.71
2019-03-24T02:06:57.745Z,7.69
2019-03-24T02:09:28.425Z,7.73
2019-03-24T02:11:58.943Z,7.75
2019-03-24T02:14:29.502Z,7.67
2019-03-24T02:17:00.061Z,7.64
2019-03-24T02:19:30.634Z,7.76
2019-03-24T02:22:01.194Z,7.73
2019-03-24T02:24:31.887Z,7.77
2019-03-24T02:27:02.508Z,7.84
2019-03-24T02:29:33.076Z,7.66
2019-03-24T02:32:03.653Z,7.35
2019-03-24T02:34:34.264Z,7.49
2019-03-24T02:37:04.791Z,7.51
2019-03-24T02:39:35.468Z,7.60
2019-03-24T02:42:06.012Z,7.71
2019-03-24T02:44:36.671Z,7.65
2019-03-24T02:47:07.201Z,7.67
2019-03-24T02:49:37.790Z,7.70
2019-03-24T02:52:08.312Z,7.50
2019-03-24T02:54:38.862Z,7.54
2019-03-24T02:57:09.432Z,7.52
2019-03-24T02:59:40.008Z,7.43
2019-03-24T03:02:10.637Z,7.55
2019-03-24T03:04:41.238Z,7.59
2019-03-24T03:07:11.909Z,7.61
2019-03-24T03:09:42.575Z,7.63
2019-03-24T03:12:13.167Z,7.49
2019-03-24T03:14:43.757Z,7.50
2019-03-24T03:17:14.457Z,7.50
2019-03-24T03:19:45.466Z,7.51
2019-03-24T03:22:16.177Z,7.57
2019-03-24T03:24:46.790Z,7.62
2019-03-24T03:27:17.384Z,7.67
2019-03-24T03:29:48.003Z,7.31
2019-03-24T03:32:18.618Z,7.34
2019-03-24T03:34:49.595Z,7.37
2019-03-24T03:37:20.262Z,7.51
2019-03-24T03:39:51.118Z,7.35
2019-03-24T03:42:21.700Z,7.35
2019-03-24T03:44:52.232Z,7.35
2019-03-24T03:47:22.942Z,7.39
2019-03-24T03:49:53.474Z,7.34
2019-03-24T03:52:24.110Z,7.39
2019-03-24T03:54:54.629Z,7.44
2019-03-24T03:57:25.242Z,7.52
2019-03-24T03:59:55.770Z,7.58
2019-03-24T04:02:26.431Z,7.40
2019-03-24T04:04:56.981Z,7.36
2019-03-24T04:07:27.551Z,7.21
2019-03-24T04:09:58.083Z,7.34
2019-03-24T04:12:28.640Z,7.10
2019-03-24T04:14:59.151Z,7.08
2019-03-24T04:17:29.709Z,7.24
2019-03-24T04:20:00.559Z,7.13
2019-03-24T04:22:31.205Z,7.08
2019-03-24T04:25:01.791Z,7.09
2019-03-24T04:27:32.334Z,6.91
2019-03-24T04:30:02.866Z,6.59
2019-03-24T04:32:33.390Z,6.71
2019-03-24T04:35:03.926Z,6.53
2019-03-24T04:37:34.485Z,6.87
2019-03-24T04:40:05.089Z,6.96
2019-03-24T04:42:35.694Z,6.90
2019-03-24T04:45:06.430Z,6.91
2019-03-24T04:47:36.996Z,7.12
2019-03-24T04:50:07.891Z,6.94
2019-03-24T04:52:38.479Z,6.99
2019-03-24T04:55:09.571Z,7.03
2019-03-24T04:57:40.144Z,6.98
2019-03-24T05:00:11.787Z,6.98
2019-03-24T05:02:42.362Z,6.83
2019-03-24T05:05:12.943Z,6.55
2019-03-24T05:07:43.619Z,6.44
2019-03-24T05:10:26.275Z,6.96
2019-03-24T05:12:57.003Z,6.68
2019-03-24T05:15:27.522Z,6.64
2019-03-24T05:17:58.077Z,6.43
2019-03-24T05:20:28.603Z,6.74
2019-03-24T05:22:59.176Z,6.94
2019-03-24T05:25:29.733Z,6.74
2019-03-24T05:28:00.301Z,6.97
2019-03-24T05:30:30.860Z,6.91
2019-03-24T05:33:02.749Z,6.78
2019-03-24T05:35:33.270Z,6.74
2019-03-24T05:38:03.847Z,6.83
2019-03-24T05:40:34.449Z,6.68
2019-03-24T05:43:05.013Z,6.50
2019-03-24T05:45:35.537Z,6.37
2019-03-24T05:48:06.111Z,6.53
2019-03-24T05:50:36.637Z,6.80
2019-03-24T05:53:07.203Z,6.89
2019-03-24T05:55:37.707Z,6.91
2019-03-24T05:58:08.283Z,6.98
2019-03-24T06:00:38.857Z,6.75
2019-03-24T06:03:09.661Z,6.72
2019-03-24T06:05:40.405Z,6.73
2019-03-24T06:08:14.025Z,6.77
2019-03-24T06:10:44.591Z,6.78
2019-03-24T06:13:15.255Z,6.91
2019-03-24T06:15:45.771Z,6.95
2019-03-24T06:18:26.854Z,7.02
2019-03-24T06:20:57.491Z,7.02
2019-03-24T06:23:28.061Z,6.99
2019-03-24T06:25:58.657Z,7.10
2019-03-24T06:28:29.227Z,6.89
2019-03-24T06:31:01.748Z,7.05
2019-03-24T06:33:32.452Z,7.10
2019-03-24T06:36:03.004Z,7.06
2019-03-24T06:38:33.658Z,6.74
2019-03-24T06:41:04.362Z,6.53
2019-03-24T06:43:34.955Z,6.55
2019-03-24T06:46:05.744Z,6.43
2019-03-24T06:48:36.921Z,6.54
2019-03-24T06:51:07.604Z,6.67
2019-03-24T06:53:38.205Z,6.79
2019-03-24T06:56:09.043Z,6.96
2019-03-24T06:58:39.587Z,6.98
2019-03-24T07:01:10.138Z,6.60
2019-03-24T07:03:40.677Z,6.83
2019-03-24T07:06:11.279Z,6.89
2019-03-24T07:08:41.889Z,6.83
2019-03-24T07:11:13.874Z,6.87
2019-03-24T07:13:44.679Z,6.81
2019-03-24T07:16:15.287Z,6.89
2019-03-24T07:18:45.858Z,6.84
2019-03-24T07:21:16.423Z,6.90
2019-03-24T07:23:46.953Z,7.12
2019-03-24T07:26:25.853Z,7.23
2019-03-24T07:28:58.344Z,7.28
2019-03-24T07:31:28.924Z,7.26
2019-03-24T07:33:59.458Z,7.35
2019-03-24T07:36:30.051Z,7.49
2019-03-24T07:39:00.641Z,7.48
2019-03-24T07:41:31.216Z,7.30
2019-03-24T07:44:03.101Z,7.53
2019-03-24T07:46:33.632Z,7.49
2019-03-24T07:49:04.175Z,7.49
2019-03-24T07:51:34.764Z,7.64
2019-03-24T07:54:05.305Z,7.57
2019-03-24T07:56:35.881Z,7.81
2019-03-24T07:59:06.456Z,7.87
2019-03-24T08:01:37.062Z,7.94
2019-03-24T08:04:07.598Z,7.87
2019-03-24T08:06:38.196Z,7.82
2019-03-24T08:09:08.794Z,7.88
2019-03-24T08:11:39.358Z,7.95
2019-03-24T08:14:09.915Z,7.79
2019-03-24T08:16:40.656Z,8.05
2019-03-24T08:19:11.222Z,8.12
2019-03-24T08:21:41.862Z,8.26
2019-03-24T08:24:12.490Z,8.29
2019-03-24T08:26:43.082Z,8.28
2019-03-24T08:29:13.655Z,8.25
2019-03-24T08:31:44.262Z,8.07
2019-03-24T08:34:14.860Z,8.38
2019-03-24T08:36:45.486Z,8.29
2019-03-24T08:39:16.075Z,8.47
2019-03-24T08:41:46.704Z,8.47
2019-03-24T08:44:17.249Z,8.35
2019-03-24T08:46:47.826Z,8.55
2019-03-24T08:49:18.363Z,8.53
2019-03-24T08:51:51.211Z,8.72
2019-03-24T08:54:21.198Z,8.73
2019-03-24T08:56:51.963Z,8.84
2019-03-24T08:59:22.530Z,8.75
2019-03-24T09:01:53.157Z,8.88
2019-03-24T09:04:23.725Z,8.76
2019-03-24T09:06:54.363Z,8.85
2019-03-24T09:09:25.052Z,8.79
2019-03-24T09:11:55.666Z,8.62
2019-03-24T09:14:26.303Z,8.85
2019-03-24T09:16:56.913Z,8.87
2019-03-24T09:19:27.497Z,8.95
2019-03-24T09:21:59.077Z,9.03
2019-03-24T09:24:29.671Z,8.88
2019-03-24T09:27:00.273Z,9.03
2019-03-24T09:29:30.839Z,9.08
2019-03-24T09:32:01.909Z,8.88
2019-03-24T09:34:32.488Z,9.14
2019-03-24T09:37:03.133Z,9.20
2019-03-24T09:39:33.709Z,9.33
2019-03-24T09:42:04.302Z,9.40
2019-03-24T09:44:34.837Z,9.47
2019-03-24T09:47:05.423Z,9.50
2019-03-24T09:49:36.007Z,9.66
2019-03-24T09:52:06.616Z,9.53
2019-03-24T09:54:37.183Z,9.54
2019-03-24T09:57:08.616Z,9.58
2019-03-24T09:59:39.248Z,9.64
2019-03-24T10:02:09.833Z,9.62
2019-03-24T10:04:40.409Z,9.68
2019-03-24T10:07:11.061Z,9.68
2019-03-24T10:09:41.606Z,9.62
2019-03-24T10:12:12.222Z,9.80
2019-03-24T10:14:42.817Z,9.76
2019-03-24T10:17:13.499Z,9.91
2019-03-24T10:19:44.199Z,9.84
2019-03-24T10:22:14.802Z,9.93
2019-03-24T10:24:45.360Z,9.97
2019-03-24T10:27:16.055Z,9.94
2019-03-24T10:29:46.729Z,9.96
2019-03-24T10:32:17.348Z,10.12
2019-03-24T10:34:48.059Z,10.09
2019-03-24T10:37:18.715Z,10.16
2019-03-24T10:39:49.317Z,10.31
2019-03-24T10:42:19.959Z,10.37
2019-03-24T10:44:50.564Z,10.30
2019-03-24T10:47:21.233Z,10.33
2019-03-24T10:49:51.825Z,10.42
2019-03-24T10:52:22.512Z,10.39
2019-03-24T10:54:53.091Z,10.39
2019-03-24T10:57:23.699Z,10.55
2019-03-24T10:59:54.300Z,10.51
2019-03-24T11:02:24.936Z,10.42
2019-03-24T11:04:55.643Z,10.43
2019-03-24T11:07:26.373Z,10.49
2019-03-24T11:09:56.946Z,10.55
2019-03-24T11:12:27.564Z,10.37
2019-03-24T11:14:58.161Z,10.52
2019-03-24T11:17:28.781Z,10.62
2019-03-24T11:19:59.417Z,10.53
2019-03-24T11:22:30.066Z,10.65
2019-03-24T11:25:00.683Z,10.62
2019-03-24T11:27:31.358Z,10.45
2019-03-24T11:30:02.035Z,10.42
2019-03-24T11:32:32.675Z,10.73
2019-03-24T11:35:03.339Z,10.83
2019-03-24T11:37:34.012Z,10.53
2019-03-24T11:40:05.049Z,10.66
2019-03-24T11:42:35.686Z,10.57
2019-03-24T11:45:06.686Z,10.82
2019-03-24T11:47:37.288Z,10.50
2019-03-24T11:50:08.513Z,10.25
2019-03-24T11:52:39.103Z,10.30
2019-03-24T11:55:10.113Z,10.48
2019-03-24T11:57:40.731Z,10.52
2019-03-24T12:00:12.228Z,10.62
2019-03-24T12:02:42.904Z,10.77
2019-03-24T12:05:13.654Z,10.59
2019-03-24T12:07:44.292Z,10.34
2019-03-24T12:10:14.934Z,10.62
2019-03-24T12:12:45.516Z,10.41
2019-03-24T12:15:16.154Z,10.43
2019-03-24T12:17:46.758Z,10.32
2019-03-24T12:20:17.342Z,10.62
2019-03-24T12:22:47.903Z,10.48
2019-03-24T12:25:18.508Z,10.54
2019-03-24T12:27:49.098Z,10.58
2019-03-24T12:30:20.855Z,10.65
2019-03-24T12:32:51.402Z,10.73
2019-03-24T12:35:22.030Z,10.88
2019-03-24T12:37:52.620Z,10.85
2019-03-24T12:40:23.253Z,10.96
2019-03-24T12:42:53.883Z,10.81
2019-03-24T12:45:24.589Z,11.00
2019-03-24T12:47:55.183Z,11.26
2019-03-24T12:50:31.360Z,11.02
2019-03-24T12:52:58.079Z,11.09
2019-03-24T12:55:28.718Z,10.94
2019-03-24T12:58:04.075Z,11.11
2019-03-24T13:00:39.612Z,11.07
2019-03-24T13:03:10.205Z,10.92
2019-03-24T13:05:40.822Z,10.71
2019-03-24T13:08:15.782Z,10.93
2019-03-24T13:10:47.213Z,10.96
2019-03-24T13:13:17.872Z,10.70
2019-03-24T13:15:48.524Z,10.80
2019-03-24T13:18:19.212Z,10.86
2019-03-24T13:20:49.883Z,10.78
2019-03-24T13:23:20.491Z,10.89
2019-03-24T13:25:51.158Z,10.86
2019-03-24T13:28:21.741Z,10.93
2019-03-24T13:30:52.393Z,10.93
2019-03-24T13:33:23.020Z,11.01
2019-03-24T13:36:05.476Z,10.92
2019-03-24T13:38:36.108Z,11.13
2019-03-24T13:41:06.756Z,11.15
2019-03-24T13:43:37.397Z,11.13
2019-03-24T13:46:08.090Z,10.99
2019-03-24T13:48:38.732Z,10.73
2019-03-24T13:51:09.412Z,10.76
2019-03-24T13:53:40.059Z,10.88
2019-03-24T13:56:10.803Z,10.82
2019-03-24T13:58:41.496Z,10.87
2019-03-24T14:01:12.248Z,10.98
2019-03-24T14:03:42.858Z,10.99
2019-03-24T14:06:13.511Z,11.03
2019-03-24T14:08:44.233Z,10.86
2019-03-24T14:11:15.689Z,10.94
2019-03-24T14:13:46.334Z,10.98
2019-03-24T14:16:16.971Z,10.92
2019-03-24T14:18:47.596Z,10.93
2019-03-24T14:21:18.273Z,11.25
2019-03-24T14:23:48.916Z,11.11
2019-03-24T14:26:19.640Z,11.17
2019-03-24T14:28:50.332Z,11.23
2019-03-24T14:31:21.666Z,11.16
2019-03-24T14:33:52.339Z,11.26
2019-03-24T14:36:23.151Z,11.09
2019-03-24T14:38:53.742Z,11.05
2019-03-24T14:41:24.385Z,11.07
2019-03-24T14:43:55.001Z,11.41
2019-03-24T14:46:25.765Z,11.22
2019-03-24T14:48:56.382Z,11.04
2019-03-24T14:51:27.055Z,11.17
2019-03-24T14:53:57.701Z,11.19
2019-03-24T14:56:28.283Z,11.25
2019-03-24T14:58:58.877Z,11.22
2019-03-24T15:01:29.495Z,11.27
2019-03-24T15:04:00.087Z,11.30
2019-03-24T15:06:30.702Z,11.20
2019-03-24T15:09:01.299Z,11.25
2019-03-24T15:11:34.989Z,11.28
2019-03-24T15:14:06.016Z,11.51
2019-03-24T15:16:36.641Z,11.47
2019-03-24T15:19:07.257Z,11.39
2019-03-24T15:21:37.906Z,11.26
2019-03-24T15:24:08.509Z,11.35
2019-03-24T15:26:39.169Z,11.27
2019-03-24T15:29:09.748Z,11.28
2019-03-24T15:31:40.484Z,11.23
2019-03-24T15:34:11.173Z,11.26
2019-03-24T15:36:41.783Z,11.19
2019-03-24T15:39:12.507Z,11.30
2019-03-24T15:41:43.097Z,11.34
2019-03-24T15:44:14.072Z,11.26
2019-03-24T15:46:44.765Z,11.29
2019-03-24T15:49:15.399Z,11.27
2019-03-24T15:51:46.065Z,11.23
2019-03-24T15:54:16.683Z,11.30
2019-03-24T15:56:47.351Z,11.30
2019-03-24T15:59:18.019Z,11.23
2019-03-24T16:01:48.615Z,11.45
2019-03-24T16:04:19.239Z,11.48
2019-03-24T16:06:49.848Z,11.24
2019-03-24T16:09:20.483Z,11.39
2019-03-24T16:11:51.213Z,11.31
2019-03-24T16:14:21.850Z,11.36
2019-03-24T16:16:52.519Z,11.54
2019-03-24T16:19:23.141Z,11.43
2019-03-24T16:21:53.799Z,11.35
2019-03-24T16:24:24.447Z,11.40
2019-03-24T16:26:55.108Z,11.44
2019-03-24T16:29:25.712Z,11.26
2019-03-24T16:31:56.365Z,11.36
2019-03-24T16:34:26.997Z,11.52
2019-03-24T16:36:57.624Z,11.46
2019-03-24T16:39:28.252Z,11.40
2019-03-24T16:41:58.950Z,11.31
2019-03-24T16:44:29.558Z,11.12
2019-03-24T16:47:00.225Z,11.28
2019-03-24T16:49:30.923Z,11.23
2019-03-24T16:52:01.931Z,11.11
2019-03-24T16:54:32.520Z,11.12
2019-03-24T16:57:03.153Z,11.24
2019-03-24T16:59:33.775Z,10.92
2019-03-24T17:02:04.511Z,11.02
2019-03-24T17:04:35.141Z,11.10
2019-03-24T17:07:07.768Z,11.03
2019-03-24T17:09:38.402Z,11.08
2019-03-24T17:12:09.084Z,10.93
2019-03-24T17:14:42.410Z,10.86
2019-03-24T17:17:13.178Z,10.88
2019-03-24T17:19:43.770Z,10.84
2019-03-24T17:22:14.382Z,10.75
2019-03-24T17:24:44.964Z,10.77
2019-03-24T17:27:15.604Z,10.60
2019-03-24T17:29:46.258Z,10.81
2019-03-24T17:32:16.976Z,10.75
2019-03-24T17:34:47.622Z,10.79
2019-03-24T17:37:18.241Z,10.68
2019-03-24T17:39:48.857Z,10.71
2019-03-24T17:42:19.534Z,10.72
2019-03-24T17:44:50.104Z,10.78
2019-03-24T17:47:20.737Z,10.74
2019-03-24T17:49:51.464Z,10.76
2019-03-24T17:52:22.134Z,10.69
2019-03-24T17:54:52.710Z,10.68
2019-03-24T17:57:23.417Z,10.65
2019-03-24T17:59:54.036Z,10.62
2019-03-24T18:02:24.698Z,10.62
2019-03-24T18:04:55.378Z,10.68
2019-03-24T18:07:25.995Z,10.58
2019-03-24T18:09:56.620Z,10.38
2019-03-24T18:12:27.211Z,10.45
2019-03-24T18:14:57.900Z,10.34
2019-03-24T18:17:28.616Z,10.25
2019-03-24T18:19:59.590Z,10.02
2019-03-24T18:22:30.211Z,10.06
2019-03-24T18:25:00.912Z,9.92
2019-03-24T18:27:31.559Z,10.05
2019-03-24T18:30:02.716Z,10.06
2019-03-24T18:32:33.290Z,10.01
2019-03-24T18:35:04.427Z,10.03
2019-03-24T18:37:35.033Z,10.04
2019-03-24T18:40:06.640Z,9.70
2019-03-24T18:42:37.412Z,9.93
2019-03-24T18:45:09.807Z,10.02
2019-03-24T18:47:40.434Z,9.95
2019-03-24T18:50:11.477Z,10.19
2019-03-24T18:52:42.126Z,10.16
2019-03-24T18:55:13.651Z,10.12
2019-03-24T18:57:44.310Z,10.15
2019-03-24T19:00:15.356Z,10.20
2019-03-24T19:02:45.928Z,10.08
2019-03-24T19:05:16.649Z,10.05
2019-03-24T19:07:47.257Z,10.07
2019-03-24T19:10:18.544Z,10.09
2019-03-24T19:12:49.112Z,10.11
2019-03-24T19:15:20.158Z,9.98
2019-03-24T19:17:50.813Z,9.98
2019-03-24T19:20:21.607Z,9.98
2019-03-24T19:22:52.271Z,10.06
2019-03-24T19:25:22.848Z,10.13
2019-03-24T19:27:53.479Z,9.94
2019-03-24T19:30:37.889Z,10.07
2019-03-24T19:33:08.482Z,9.89
2019-03-24T19:35:39.229Z,10.02
2019-03-24T19:38:09.780Z,9.90
2019-03-24T19:40:40.526Z,9.91
2019-03-24T19:43:11.119Z,9.74
2019-03-24T19:45:41.796Z,9.88
2019-03-24T19:48:12.430Z,9.78
2019-03-24T19:50:43.079Z,9.49
2019-03-24T19:53:13.650Z,9.60
2019-03-24T19:55:44.372Z,9.48
2019-03-24T19:58:14.967Z,9.30
2019-03-24T20:00:45.597Z,9.32
2019-03-24T20:03:16.211Z,9.38
2019-03-24T20:05:46.895Z,9.42
2019-03-24T20:08:17.534Z,9.28
2019-03-24T20:10:48.189Z,9.41
2019-03-24T20:13:18.823Z,9.09
2019-03-24T20:15:49.546Z,9.13
2019-03-24T20:18:20.116Z,8.82
2019-03-24T20:20:52.097Z,8.92
2019-03-24T20:23:22.925Z,8.70
2019-03-24T20:25:53.551Z,8.76
2019-03-24T20:28:24.219Z,8.88
2019-03-24T20:30:54.835Z,8.75
2019-03-24T20:33:25.404Z,8.66
2019-03-24T20:35:56.019Z,8.82
2019-03-24T20:38:26.699Z,8.81
2019-03-24T20:40:57.413Z,8.80
2019-03-24T20:43:28.051Z,8.82
2019-03-24T20:45:58.673Z,8.87
2019-03-24T20:48:29.285Z,8.79
2019-03-24T20:50:59.941Z,9.03
2019-03-24T20:53:30.659Z,9.08
2019-03-24T20:56:02.771Z,9.04
2019-03-24T20:58:33.434Z,9.03
2019-03-24T21:01:05.989Z,9.09
2019-03-24T21:03:36.671Z,8.91
2019-03-24T21:06:10.160Z,9.14
2019-03-24T21:08:40.931Z,9.04
2019-03-24T21:11:11.627Z,8.89
2019-03-24T21:13:42.278Z,8.96
2019-03-24T21:16:13.149Z,8.97
2019-03-24T21:18:43.837Z,8.82
2019-03-24T21:21:14.502Z,8.67
2019-03-24T21:23:45.306Z,8.88
2019-03-24T21:26:15.884Z,8.83
2019-03-24T21:28:46.602Z,8.88
2019-03-24T21:31:17.195Z,8.94
2019-03-24T21:33:48.015Z,8.92
2019-03-24T21:36:18.864Z,8.61
2019-03-24T21:38:49.547Z,8.82
2019-03-24T21:41:20.124Z,8.69
2019-03-24T21:43:50.741Z,8.69
2019-03-24T21:46:21.375Z,8.73
2019-03-24T21:48:52.025Z,8.50
2019-03-24T21:51:22.655Z,8.67
2019-03-24T21:53:53.286Z,8.68
2019-03-24T21:56:23.883Z,8.63
2019-03-24T21:58:54.463Z,8.65
2019-03-24T22:01:25.056Z,8.94
2019-03-24T22:03:55.645Z,8.82
2019-03-24T22:06:26.261Z,8.77
2019-03-24T22:08:56.853Z,8.73
2019-03-24T22:11:27.397Z,8.65
2019-03-24T22:13:58.010Z,8.46
2019-03-24T22:16:28.617Z,8.49
2019-03-24T22:18:59.237Z,8.57
2019-03-24T22:21:29.809Z,8.39
2019-03-24T22:24:00.415Z,8.44
2019-03-24T22:26:30.975Z,8.46
2019-03-24T22:29:01.723Z,8.45
2019-03-24T22:31:32.280Z,8.23
2019-03-24T22:34:02.951Z,8.32
2019-03-24T22:36:33.596Z,8.07
2019-03-24T22:39:05.358Z,8.07
2019-03-24T22:41:35.971Z,8.00
2019-03-24T22:44:06.686Z,8.11
2019-03-24T22:46:37.369Z,8.15
2019-03-24T22:49:08.005Z,8.00
2019-03-24T22:51:38.603Z,8.00
2019-03-24T22:54:09.224Z,7.92
2019-03-24T22:56:39.862Z,7.92
2019-03-24T22:59:10.593Z,7.97
2019-03-24T23:01:41.173Z,7.84
2019-03-24T23:04:11.862Z,8.02
2019-03-24T23:06:42.451Z,7.92
2019-03-24T23:09:13.038Z,8.07
2019-03-24T23:11:43.637Z,7.73
2019-03-24T23:14:14.316Z,7.71
2019-03-24T23:16:44.917Z,7.91
2019-03-24T23:19:15.477Z,7.78
2019-03-24T23:21:46.122Z,7.58
2019-03-24T23:24:16.834Z,7.91
2019-03-24T23:26:47.478Z,7.61
2019-03-24T23:29:18.185Z,7.56
2019-03-24T23:31:48.844Z,7.66
2019-03-24T23:34:19.526Z,7.48
2019-03-24T23:36:50.182Z,7.61
2019-03-24T23:39:20.861Z,7.48
2019-03-24T23:41:51.490Z,7.72
2019-03-24T23:44:22.077Z,7.85
2019-03-24T23:46:52.744Z,7.80
2019-03-24T23:49:23.625Z,7.81
2019-03-24T23:51:54.222Z,7.59
2019-03-24T23:54:27.350Z,7.77
2019-03-24T23:56:57.156Z,7.81
2019-03-24T23:59:27.740Z,7.66
